createdAt,value
2017-06-14T00:00:37.962Z,71.17
2017-06-14T00:01:48.099Z,71.17
2017-06-14T00:02:58.231Z,71.17
2017-06-14T00:04:07.719Z,71.37
2017-06-14T00:05:17.521Z,71.23
2017-06-14T00:06:28.387Z,71.33
2017-06-14T00:07:38.096Z,71.33
2017-06-14T00:08:48.533Z,71.37
2017-06-14T00:09:58.356Z,71.62
2017-06-14T00:11:08.783Z,71.42
2017-06-14T00:12:18.251Z,71.62
2017-06-14T00:13:28.399Z,71.23
2017-06-14T00:14:37.357Z,71.42
2017-06-14T00:15:47.323Z,71.75
2017-06-14T00:16:56.619Z,71.42
2017-06-14T00:18:06.509Z,71.33
2017-06-14T00:19:15.989Z,71.81
2017-06-14T00:20:25.496Z,71.91
2017-06-14T00:21:35.399Z,71.71
2017-06-14T00:22:44.820Z,71.91
2017-06-14T00:23:55.018Z,71.91
2017-06-14T00:25:04.150Z,72.09
2017-06-14T00:26:13.843Z,72.19
2017-06-14T00:27:22.796Z,72.19
2017-06-14T00:28:32.977Z,72.38
2017-06-14T00:29:42.245Z,72.58
2017-06-14T00:30:51.201Z,72.19
2017-06-14T00:32:00.163Z,72.29
2017-06-14T00:33:09.116Z,72.48
2017-06-14T00:34:18.072Z,72.48
2017-06-14T00:35:27.081Z,72.48
2017-06-14T00:36:36.034Z,72.38
2017-06-14T00:37:44.993Z,72.67
2017-06-14T00:38:53.946Z,72.19
2017-06-14T00:40:03.232Z,72.48
2017-06-14T00:41:12.187Z,72.38
2017-06-14T00:42:21.140Z,72.38
2017-06-14T00:43:30.097Z,72.48
2017-06-14T00:44:39.055Z,72.29
2017-06-14T00:45:48.103Z,73.05
2017-06-14T00:46:57.052Z,72.96
2017-06-14T00:48:06.095Z,73.05
2017-06-14T00:49:15.047Z,72.96
2017-06-14T00:50:24.003Z,72.96
2017-06-14T00:51:32.957Z,72.96
2017-06-14T00:52:41.909Z,72.96
2017-06-14T00:53:50.864Z,72.96
2017-06-14T00:54:59.827Z,73.54
2017-06-14T00:56:08.904Z,73.24
2017-06-14T00:57:17.860Z,73.72
2017-06-14T00:58:26.864Z,73.54
2017-06-14T00:59:35.822Z,73.72
2017-06-14T01:00:44.777Z,73.63
2017-06-14T01:01:53.730Z,73.91
2017-06-14T01:03:02.696Z,74.11
2017-06-14T01:04:11.799Z,74.3
2017-06-14T01:05:20.756Z,74.4
2017-06-14T01:06:29.715Z,73.97
2017-06-14T01:07:38.670Z,73.91
2017-06-14T01:08:47.621Z,74.16
2017-06-14T01:09:56.621Z,74.55
2017-06-14T01:11:05.577Z,74.55
2017-06-14T01:12:14.531Z,74.55
2017-06-14T01:13:23.483Z,74.45
2017-06-14T01:14:32.438Z,74.55
2017-06-14T01:15:41.435Z,74.55
2017-06-14T01:16:50.385Z,74.65
2017-06-14T01:17:59.663Z,74.68
2017-06-14T01:19:08.617Z,74.45
2017-06-14T01:20:17.598Z,74.55
2017-06-14T01:21:26.555Z,74.26
2017-06-14T01:22:35.513Z,74.93
2017-06-14T01:23:44.468Z,73.97
2017-06-14T01:24:53.421Z,74.55
2017-06-14T01:26:02.376Z,74.84
2017-06-14T01:27:11.379Z,74.26
2017-06-14T01:28:20.331Z,75.12
2017-06-14T01:29:29.287Z,74.26
2017-06-14T01:30:38.255Z,75.22
2017-06-14T01:31:47.213Z,74.84
2017-06-14T01:32:56.218Z,74.93
2017-06-14T01:34:05.174Z,74.84
2017-06-14T01:35:14.127Z,74.84
2017-06-14T01:36:23.086Z,75.02
2017-06-14T01:37:32.039Z,74.84
2017-06-14T01:38:41.047Z,74.74
2017-06-14T01:39:50.005Z,75.02
2017-06-14T01:40:58.957Z,75.51
2017-06-14T01:42:07.914Z,75.41
2017-06-14T01:43:16.861Z,75.31
2017-06-14T01:44:25.819Z,75.41
2017-06-14T01:45:34.779Z,75.31
2017-06-14T01:46:43.735Z,75.22
2017-06-14T01:47:52.689Z,75.41
2017-06-14T01:49:01.639Z,75.51
2017-06-14T01:50:10.593Z,76.18
2017-06-14T01:51:19.548Z,75.51
2017-06-14T01:52:28.501Z,75.89
2017-06-14T01:53:37.455Z,75.79
2017-06-14T01:54:46.415Z,76.18
2017-06-14T01:55:55.370Z,75.7
2017-06-14T01:57:04.323Z,75.6
2017-06-14T01:58:13.277Z,75.89
2017-06-14T01:59:22.233Z,75.98
2017-06-14T02:00:31.183Z,75.7
2017-06-14T02:01:40.136Z,75.7
2017-06-14T02:02:49.095Z,75.79
2017-06-14T02:03:58.078Z,76.18
2017-06-14T02:05:07.034Z,76.08
2017-06-14T02:06:15.987Z,75.98
2017-06-14T02:07:25.036Z,76.33
2017-06-14T02:08:34.073Z,76.18
2017-06-14T02:09:43.027Z,76.56
2017-06-14T02:10:52.009Z,76.71
2017-06-14T02:12:00.966Z,76.52
2017-06-14T02:13:09.974Z,76.14
2017-06-14T02:14:19.019Z,76.81
2017-06-14T02:15:27.973Z,76.81
2017-06-14T02:16:36.927Z,76.81
2017-06-14T02:17:45.879Z,76.81
2017-06-14T02:18:54.830Z,76.71
2017-06-14T02:20:04.110Z,76.52
2017-06-14T02:21:13.066Z,76.62
2017-06-14T02:22:22.020Z,77.28
2017-06-14T02:23:30.976Z,77.09
2017-06-14T02:24:39.930Z,76.81
2017-06-14T02:25:48.892Z,76.9
2017-06-14T02:26:57.848Z,76.9
2017-06-14T02:28:06.803Z,77.09
2017-06-14T02:29:15.757Z,77
2017-06-14T02:30:24.763Z,77.19
2017-06-14T02:31:33.717Z,77
2017-06-14T02:32:42.672Z,77
2017-06-14T02:33:51.630Z,77.28
2017-06-14T02:35:00.583Z,77.09
2017-06-14T02:36:09.588Z,77.19
2017-06-14T02:37:18.543Z,77.09
2017-06-14T02:38:27.495Z,77.09
2017-06-14T02:39:36.532Z,77
2017-06-14T02:40:45.482Z,77
2017-06-14T02:41:54.437Z,77.09
2017-06-14T02:43:03.392Z,77.38
2017-06-14T02:44:12.348Z,77.09
2017-06-14T02:45:21.300Z,77.09
2017-06-14T02:46:30.252Z,77
2017-06-14T02:47:39.204Z,77.09
2017-06-14T02:48:48.161Z,77.09
2017-06-14T02:49:57.113Z,77.19
2017-06-14T02:51:06.151Z,77.19
2017-06-14T02:52:15.106Z,77.38
2017-06-14T02:53:24.059Z,77.48
2017-06-14T02:54:33.012Z,77.48
2017-06-14T02:55:41.969Z,77.38
2017-06-14T02:56:50.923Z,77.57
2017-06-14T02:57:59.881Z,77.38
2017-06-14T02:59:08.835Z,77.95
2017-06-14T03:00:17.869Z,77.57
2017-06-14T03:01:26.824Z,77.95
2017-06-14T03:02:35.781Z,77.95
2017-06-14T03:03:44.732Z,78.14
2017-06-14T03:04:53.682Z,77.95
2017-06-14T03:06:02.632Z,77.48
2017-06-14T03:07:11.586Z,77.57
2017-06-14T03:08:20.556Z,78.24
2017-06-14T03:09:29.521Z,78.14
2017-06-14T03:10:38.476Z,78.11
2017-06-14T03:11:47.436Z,78.49
2017-06-14T03:12:56.394Z,78.43
2017-06-14T03:14:05.347Z,78.49
2017-06-14T03:15:14.330Z,78.43
2017-06-14T03:16:23.657Z,78.53
2017-06-14T03:17:32.612Z,78.34
2017-06-14T03:18:41.565Z,78.43
2017-06-14T03:19:50.518Z,78.11
2017-06-14T03:20:59.471Z,78.3
2017-06-14T03:22:08.426Z,78.01
2017-06-14T03:23:17.379Z,78.68
2017-06-14T03:24:26.332Z,78.68
2017-06-14T03:25:35.284Z,78.87
2017-06-14T03:26:44.239Z,78.68
2017-06-14T03:27:53.198Z,78.78
2017-06-14T03:29:02.150Z,78.58
2017-06-14T03:30:11.101Z,78.87
2017-06-14T03:31:20.088Z,78.87
2017-06-14T03:32:29.040Z,78.3
2017-06-14T03:33:37.996Z,78.14
2017-06-14T03:34:46.954Z,78.2
2017-06-14T03:35:55.908Z,78.34
2017-06-14T03:37:04.863Z,78.2
2017-06-14T03:38:13.824Z,79
2017-06-14T03:39:22.780Z,78.05
2017-06-14T03:40:31.733Z,78.14
2017-06-14T03:41:40.689Z,78.43
2017-06-14T03:42:49.639Z,78.43
2017-06-14T03:43:58.593Z,78.24
2017-06-14T03:45:07.546Z,78.43
2017-06-14T03:46:16.924Z,78.43
2017-06-14T03:47:25.878Z,78.34
2017-06-14T03:48:34.829Z,78.05
2017-06-14T03:49:43.779Z,78.05
2017-06-14T03:50:52.778Z,78.14
2017-06-14T03:52:01.823Z,78.24
2017-06-14T03:53:10.778Z,78.34
2017-06-14T03:54:19.730Z,78.14
2017-06-14T03:55:28.683Z,78.14
2017-06-14T03:56:37.687Z,77.57
2017-06-14T03:57:46.645Z,77.86
2017-06-14T03:58:55.597Z,77.95
2017-06-14T04:00:04.638Z,77.48
2017-06-14T04:01:13.597Z,77.76
2017-06-14T04:02:22.641Z,77.86
2017-06-14T04:03:31.596Z,77.86
2017-06-14T04:04:40.555Z,77.76
2017-06-14T04:05:49.510Z,77.86
2017-06-14T04:06:58.474Z,78.24
2017-06-14T04:08:07.476Z,77.57
2017-06-14T04:09:16.764Z,78.05
2017-06-14T04:10:25.710Z,77.28
2017-06-14T04:11:34.662Z,77.48
2017-06-14T04:12:43.614Z,77.38
2017-06-14T04:13:52.652Z,77.28
2017-06-14T04:15:01.600Z,77.86
2017-06-14T04:16:10.553Z,77.86
2017-06-14T04:17:19.505Z,77.67
2017-06-14T04:18:28.459Z,77.57
2017-06-14T04:19:37.413Z,77.48
2017-06-14T04:20:46.371Z,77.76
2017-06-14T04:21:55.321Z,77.67
2017-06-14T04:23:04.275Z,77.76
2017-06-14T04:24:13.224Z,77.76
2017-06-14T04:25:22.177Z,77.57
2017-06-14T04:26:31.129Z,77.67
2017-06-14T04:27:40.082Z,78.05
2017-06-14T04:28:49.032Z,77.76
2017-06-14T04:29:58.072Z,77.86
2017-06-14T04:31:07.357Z,77.09
2017-06-14T04:32:16.312Z,77.48
2017-06-14T04:33:25.261Z,77.95
2017-06-14T04:34:34.301Z,77.76
2017-06-14T04:35:43.252Z,77.95
2017-06-14T04:36:52.209Z,78.05
2017-06-14T04:38:01.163Z,77.95
2017-06-14T04:39:10.120Z,77.76
2017-06-14T04:40:19.076Z,77.86
2017-06-14T04:41:28.024Z,77.57
2017-06-14T04:42:37.110Z,77.57
2017-06-14T04:43:46.062Z,77.38
2017-06-14T04:44:55.106Z,77.57
2017-06-14T04:46:04.384Z,77.28
2017-06-14T04:47:13.339Z,77.38
2017-06-14T04:48:22.343Z,77.48
2017-06-14T04:49:31.300Z,77.38
2017-06-14T04:50:40.256Z,77.48
2017-06-14T04:51:49.213Z,77.48
2017-06-14T04:52:58.168Z,77.28
2017-06-14T04:54:07.180Z,77.57
2017-06-14T04:55:16.221Z,77.48
2017-06-14T04:56:25.269Z,77.48
2017-06-14T04:57:34.224Z,77.48
2017-06-14T04:58:43.180Z,77.28
2017-06-14T04:59:52.192Z,77.19
2017-06-14T05:01:01.147Z,77.09
2017-06-14T05:02:13.883Z,77.09
2017-06-14T05:03:22.837Z,76.9
2017-06-14T05:04:32.118Z,76.9
2017-06-14T05:05:41.216Z,77.28
2017-06-14T05:06:50.201Z,76.65
2017-06-14T05:07:59.519Z,76.46
2017-06-14T05:09:08.471Z,76.94
2017-06-14T05:10:17.421Z,76.62
2017-06-14T05:11:26.458Z,77
2017-06-14T05:12:35.409Z,76.84
2017-06-14T05:13:44.370Z,76.62
2017-06-14T05:14:53.377Z,76.56
2017-06-14T05:16:02.576Z,76.08
2017-06-14T05:17:11.527Z,76.18
2017-06-14T05:18:20.584Z,76.18
2017-06-14T05:19:29.633Z,76.46
2017-06-14T05:20:38.595Z,76.46
2017-06-14T05:21:47.607Z,76.56
2017-06-14T05:22:58.098Z,76.27
2017-06-14T05:24:08.814Z,76.56
2017-06-14T05:25:17.767Z,76.18
2017-06-14T05:26:27.513Z,75.98
2017-06-14T05:27:38.049Z,75.98
2017-06-14T05:28:47.545Z,75.98
2017-06-14T05:29:56.978Z,75.89
2017-06-14T05:31:06.027Z,75.6
2017-06-14T05:32:15.393Z,75.98
2017-06-14T05:33:24.487Z,76.08
2017-06-14T05:34:33.680Z,75.89
2017-06-14T05:35:42.705Z,75.51
2017-06-14T05:36:51.727Z,75.41
2017-06-14T05:38:04.727Z,75.31
2017-06-14T05:39:25.884Z,74.97
2017-06-14T05:40:49.809Z,74.58
2017-06-14T05:42:05.654Z,74.4
2017-06-14T05:43:15.308Z,74.49
2017-06-14T05:44:24.660Z,74.3
2017-06-14T05:45:33.673Z,74.77
2017-06-14T05:46:42.725Z,74.77
2017-06-14T05:47:51.708Z,74.68
2017-06-14T05:49:00.665Z,74.4
2017-06-14T05:50:09.623Z,74.49
2017-06-14T05:51:18.577Z,74.11
2017-06-14T05:52:27.531Z,74.2
2017-06-14T05:53:36.482Z,74.01
2017-06-14T05:54:45.436Z,74.11
2017-06-14T05:55:54.386Z,74.11
2017-06-14T05:57:03.389Z,74.43
2017-06-14T05:58:12.517Z,74.11
2017-06-14T05:59:21.564Z,74.01
2017-06-14T06:00:30.523Z,73.91
2017-06-14T06:01:39.477Z,73.57
2017-06-14T06:02:48.483Z,73.34
2017-06-14T06:03:57.436Z,73.38
2017-06-14T06:05:06.388Z,72.99
2017-06-14T06:06:15.378Z,72.86
2017-06-14T06:07:24.423Z,72.86
2017-06-14T06:08:33.518Z,72.99
2017-06-14T06:09:42.471Z,72.99
2017-06-14T06:10:51.427Z,72.99
2017-06-14T06:12:00.470Z,73.28
2017-06-14T06:13:09.422Z,73.19
2017-06-14T06:14:18.475Z,73.09
2017-06-14T06:15:27.438Z,72.71
2017-06-14T06:16:36.394Z,72.99
2017-06-14T06:17:45.353Z,73.09
2017-06-14T06:18:54.399Z,71.84
2017-06-14T06:20:03.363Z,71.75
2017-06-14T06:21:12.640Z,71.66
2017-06-14T06:22:21.596Z,71.56
2017-06-14T06:23:30.548Z,71.66
2017-06-14T06:24:39.502Z,71.37
2017-06-14T06:25:48.462Z,71.17
2017-06-14T06:26:57.416Z,70.64
2017-06-14T06:28:06.407Z,70.54
2017-06-14T06:29:15.361Z,69.96
2017-06-14T06:30:24.316Z,69.77
2017-06-14T06:31:33.322Z,69.77
2017-06-14T06:32:42.279Z,69.77
2017-06-14T06:33:51.236Z,69.58
2017-06-14T06:35:00.189Z,69.29
2017-06-14T06:36:09.142Z,69.01
2017-06-14T06:37:18.147Z,69.2
2017-06-14T06:38:27.137Z,69.2
2017-06-14T06:39:36.092Z,69.87
2017-06-14T06:40:45.045Z,69.01
2017-06-14T06:41:54.001Z,68.85
2017-06-14T06:43:02.956Z,68.81
2017-06-14T06:44:12.002Z,68.95
2017-06-14T06:45:20.958Z,69.04
2017-06-14T06:46:29.915Z,68.75
2017-06-14T06:47:38.879Z,68.85
2017-06-14T06:48:47.886Z,68.85
2017-06-14T06:49:56.845Z,68.18
2017-06-14T06:51:06.121Z,68.37
2017-06-14T06:52:15.073Z,68.08
2017-06-14T06:53:24.116Z,68.08
2017-06-14T06:54:33.070Z,68.08
2017-06-14T06:55:42.028Z,67.99
2017-06-14T06:56:50.986Z,68.27
2017-06-14T06:57:59.946Z,67.89
2017-06-14T06:59:08.900Z,67.6
2017-06-14T07:00:17.910Z,67.5
2017-06-14T07:01:26.866Z,67.32
2017-06-14T07:02:35.907Z,66.93
2017-06-14T07:03:44.863Z,66.26
2017-06-14T07:04:53.815Z,66.35
2017-06-14T07:06:02.839Z,66.35
2017-06-14T07:07:11.807Z,66.26
2017-06-14T07:08:20.760Z,66.74
2017-06-14T07:09:29.712Z,66.93
2017-06-14T07:10:38.667Z,66.96
2017-06-14T07:11:47.624Z,67.25
2017-06-14T07:12:56.585Z,66.77
2017-06-14T07:14:05.540Z,66.67
2017-06-14T07:15:14.494Z,67.06
2017-06-14T07:16:23.445Z,66.77
2017-06-14T07:17:32.410Z,66.58
2017-06-14T07:18:41.365Z,66
2017-06-14T07:19:50.347Z,66
2017-06-14T07:20:59.303Z,66.1
2017-06-14T07:22:08.256Z,66.19
2017-06-14T07:23:17.582Z,65.27
2017-06-14T07:24:26.538Z,65.56
2017-06-14T07:25:35.492Z,65.17
2017-06-14T07:26:44.446Z,64.5
2017-06-14T07:27:53.398Z,64.98
2017-06-14T07:29:02.409Z,64.89
2017-06-14T07:30:11.402Z,64.89
2017-06-14T07:31:20.356Z,65.08
2017-06-14T07:32:29.310Z,64.5
2017-06-14T07:33:38.264Z,64.31
2017-06-14T07:34:47.222Z,64.31
2017-06-14T07:35:56.178Z,63.83
2017-06-14T07:37:05.131Z,63.64
2017-06-14T07:38:14.264Z,63.92
2017-06-14T07:39:23.215Z,64.31
2017-06-14T07:40:32.166Z,63.83
2017-06-14T07:41:41.126Z,63.83
2017-06-14T07:42:50.082Z,63.73
2017-06-14T07:43:59.035Z,63.45
2017-06-14T07:45:07.995Z,64.02
2017-06-14T07:46:17.005Z,63.54
2017-06-14T07:47:25.965Z,63.83
2017-06-14T07:48:35.006Z,63.73
2017-06-14T07:49:43.977Z,63.35
2017-06-14T07:50:52.939Z,63.06
2017-06-14T07:52:01.948Z,63.06
2017-06-14T07:53:11.080Z,62.96
2017-06-14T07:54:20.034Z,63.06
2017-06-14T07:55:28.995Z,63.25
2017-06-14T07:56:37.957Z,62.96
2017-06-14T07:57:46.913Z,63.45
2017-06-14T07:58:55.869Z,62.87
2017-06-14T08:00:04.829Z,62.96
2017-06-14T08:01:13.810Z,63.25
2017-06-14T08:02:22.772Z,63.83
2017-06-14T08:03:31.730Z,63.92
2017-06-14T08:04:40.686Z,62.77
2017-06-14T08:05:49.645Z,62.77
2017-06-14T08:06:58.599Z,62.68
2017-06-14T08:08:07.643Z,62.87
2017-06-14T08:09:16.923Z,62.48
2017-06-14T08:10:25.874Z,62.01
2017-06-14T08:11:34.827Z,61.24
2017-06-14T08:12:43.783Z,61.33
2017-06-14T08:13:52.742Z,61.91
2017-06-14T08:15:01.702Z,62.01
2017-06-14T08:16:10.662Z,61.14
2017-06-14T08:17:19.615Z,61.43
2017-06-14T08:18:28.567Z,61.24
2017-06-14T08:19:37.529Z,61.43
2017-06-14T08:20:46.537Z,61.05
2017-06-14T08:21:55.491Z,61.46
2017-06-14T08:23:04.450Z,61.08
2017-06-14T08:24:13.407Z,60.69
2017-06-14T08:25:22.365Z,60.98
2017-06-14T08:26:31.410Z,60.78
2017-06-14T08:27:40.371Z,60.88
2017-06-14T08:28:49.327Z,60.5
2017-06-14T08:29:58.279Z,60.4
2017-06-14T08:31:07.236Z,60.21
2017-06-14T08:32:16.192Z,59.92
2017-06-14T08:33:25.149Z,60.11
2017-06-14T08:34:34.102Z,59.44
2017-06-14T08:35:43.063Z,59.54
2017-06-14T08:36:52.022Z,59.64
2017-06-14T08:38:01.357Z,59.44
2017-06-14T08:39:10.314Z,59.06
2017-06-14T08:40:19.273Z,59.25
2017-06-14T08:41:28.227Z,59.83
2017-06-14T08:42:37.181Z,59.83
2017-06-14T08:43:46.137Z,59.73
2017-06-14T08:44:55.089Z,59.54
2017-06-14T08:46:04.046Z,59.34
2017-06-14T08:47:13.005Z,59.64
2017-06-14T08:48:21.967Z,59.54
2017-06-14T08:49:31.014Z,59.34
2017-06-14T08:50:39.974Z,59.54
2017-06-14T08:51:48.930Z,59.64
2017-06-14T08:52:57.884Z,59.64
2017-06-14T08:54:06.931Z,59.83
2017-06-14T08:55:15.893Z,59.44
2017-06-14T08:56:24.849Z,59.25
2017-06-14T08:57:33.808Z,59.38
2017-06-14T08:58:42.764Z,58.89
2017-06-14T08:59:51.719Z,58.7
2017-06-14T09:01:00.726Z,58.32
2017-06-14T09:02:09.682Z,57.84
2017-06-14T09:03:19.049Z,58.06
2017-06-14T09:04:28.013Z,57.39
2017-06-14T09:05:36.968Z,57.65
2017-06-14T09:06:45.975Z,57.45
2017-06-14T09:07:54.929Z,58.13
2017-06-14T09:09:03.888Z,58.32
2017-06-14T09:10:12.846Z,58.32
2017-06-14T09:11:21.807Z,58.89
2017-06-14T09:12:30.763Z,58.8
2017-06-14T09:13:39.725Z,58.32
2017-06-14T09:14:48.675Z,57.84
2017-06-14T09:15:57.628Z,58.03
2017-06-14T09:17:06.588Z,58.13
2017-06-14T09:18:15.634Z,58.03
2017-06-14T09:19:24.593Z,58.13
2017-06-14T09:20:33.554Z,58.42
2017-06-14T09:21:42.510Z,58.32
2017-06-14T09:22:51.469Z,58.03
2017-06-14T09:24:00.515Z,57.75
2017-06-14T09:25:09.564Z,57.75
2017-06-14T09:26:18.522Z,57.26
2017-06-14T09:27:27.476Z,57.36
2017-06-14T09:28:36.444Z,57.55
2017-06-14T09:29:45.404Z,57.29
2017-06-14T09:30:54.362Z,57.48
2017-06-14T09:32:03.405Z,57.39
2017-06-14T09:33:12.365Z,57.39
2017-06-14T09:34:21.407Z,56.81
2017-06-14T09:35:30.370Z,56.81
2017-06-14T09:36:39.327Z,55.94
2017-06-14T09:37:48.284Z,56.04
2017-06-14T09:38:57.250Z,55.68
2017-06-14T09:40:06.210Z,55.49
2017-06-14T09:41:15.167Z,55.11
2017-06-14T09:42:24.453Z,54.72
2017-06-14T09:43:33.412Z,55.68
2017-06-14T09:44:42.371Z,55.76
2017-06-14T09:45:51.332Z,55.27
2017-06-14T09:47:00.338Z,54.79
2017-06-14T09:48:09.294Z,55.18
2017-06-14T09:49:18.342Z,55.08
2017-06-14T09:50:27.302Z,55.56
2017-06-14T09:51:36.257Z,55.46
2017-06-14T09:52:45.213Z,55.85
2017-06-14T09:53:54.167Z,55.46
2017-06-14T09:55:03.118Z,54.89
2017-06-14T09:56:12.073Z,55.18
2017-06-14T09:57:21.369Z,54.6
2017-06-14T09:58:30.327Z,54.14
2017-06-14T09:59:39.282Z,54.24
2017-06-14T10:00:48.237Z,53.66
2017-06-14T10:01:57.285Z,54.14
2017-06-14T10:03:06.238Z,54.34
2017-06-14T10:04:15.193Z,53.83
2017-06-14T10:05:24.236Z,54.5
2017-06-14T10:06:33.284Z,54.41
2017-06-14T10:07:42.239Z,54.14
2017-06-14T10:08:51.201Z,54.53
2017-06-14T10:10:00.163Z,54.63
2017-06-14T10:11:09.213Z,54.05
2017-06-14T10:12:18.171Z,54.05
2017-06-14T10:13:27.128Z,53.4
2017-06-14T10:14:36.085Z,52.44
2017-06-14T10:15:45.041Z,52.54
2017-06-14T10:16:53.995Z,52.34
2017-06-14T10:18:02.951Z,52.63
2017-06-14T10:19:11.915Z,51.86
2017-06-14T10:20:20.954Z,51.57
2017-06-14T10:21:29.964Z,50.9
2017-06-14T10:22:38.937Z,50.32
2017-06-14T10:23:47.898Z,50.9
2017-06-14T10:24:56.857Z,50.81
2017-06-14T10:26:05.816Z,50.23
2017-06-14T10:27:14.860Z,50.9
2017-06-14T10:28:23.820Z,50.99
2017-06-14T10:29:32.781Z,50.32
2017-06-14T10:30:41.739Z,49.87
2017-06-14T10:31:50.696Z,50.06
2017-06-14T10:32:59.702Z,49.68
2017-06-14T10:34:08.662Z,50.25
2017-06-14T10:35:17.622Z,49.87
2017-06-14T10:36:26.669Z,50.06
2017-06-14T10:37:35.629Z,50.35
2017-06-14T10:38:44.638Z,50.35
2017-06-14T10:39:53.681Z,50.54
2017-06-14T10:41:02.644Z,50.25
2017-06-14T10:42:11.610Z,50.35
2017-06-14T10:43:20.572Z,49.96
2017-06-14T10:44:29.582Z,49.77
2017-06-14T10:45:38.541Z,49.48
2017-06-14T10:46:47.501Z,49.77
2017-06-14T10:47:56.463Z,49.58
2017-06-14T10:49:05.505Z,49.32
2017-06-14T10:50:14.464Z,49.6
2017-06-14T10:51:23.428Z,49.89
2017-06-14T10:52:32.473Z,49.41
2017-06-14T10:53:41.432Z,48.93
2017-06-14T10:54:50.391Z,48.44
2017-06-14T10:55:59.398Z,48.64
2017-06-14T10:57:08.357Z,49.02
2017-06-14T10:58:17.321Z,48.64
2017-06-14T10:59:26.279Z,48.44
2017-06-14T11:00:35.239Z,48.64
2017-06-14T11:01:44.249Z,48.54
2017-06-14T11:02:53.535Z,48.44
2017-06-14T11:04:02.495Z,48.66
2017-06-14T11:05:11.542Z,48.18
2017-06-14T11:06:20.497Z,48.28
2017-06-14T11:07:29.499Z,48.18
2017-06-14T11:08:38.457Z,48.18
2017-06-14T11:09:47.502Z,47.7
2017-06-14T11:10:56.464Z,48.28
2017-06-14T11:12:05.420Z,47.99
2017-06-14T11:13:14.520Z,47.6
2017-06-14T11:14:23.478Z,47.99
2017-06-14T11:15:32.475Z,47.89
2017-06-14T11:16:41.432Z,47.89
2017-06-14T11:17:50.390Z,47.22
2017-06-14T11:18:59.396Z,47.31
2017-06-14T11:20:08.359Z,47.22
2017-06-14T11:21:17.319Z,47.51
2017-06-14T11:22:26.277Z,47.7
2017-06-14T11:23:35.233Z,47.7
2017-06-14T11:24:44.189Z,47.6
2017-06-14T11:25:53.143Z,47.8
2017-06-14T11:27:02.098Z,47.31
2017-06-14T11:28:11.052Z,47.22
2017-06-14T11:29:20.006Z,47.31
2017-06-14T11:30:29.011Z,47.7
2017-06-14T11:31:37.972Z,47.89
2017-06-14T11:32:46.930Z,47.7
2017-06-14T11:33:55.975Z,47.7
2017-06-14T11:35:04.939Z,47.7
2017-06-14T11:36:13.897Z,47.7
2017-06-14T11:37:22.857Z,47.8
2017-06-14T11:38:31.811Z,47.7
2017-06-14T11:39:40.761Z,47.89
2017-06-14T11:40:49.808Z,47.03
2017-06-14T11:41:58.815Z,47.31
2017-06-14T11:43:07.774Z,47.31
2017-06-14T11:44:16.732Z,47.24
2017-06-14T11:45:25.688Z,47.24
2017-06-14T11:46:34.644Z,47.12
2017-06-14T11:47:43.600Z,46.66
2017-06-14T11:48:52.557Z,47.05
2017-06-14T11:50:01.516Z,46.86
2017-06-14T11:51:10.473Z,46.86
2017-06-14T11:52:19.432Z,46.95
2017-06-14T11:53:28.390Z,46.76
2017-06-14T11:54:37.350Z,46.28
2017-06-14T11:55:46.313Z,46.28
2017-06-14T11:56:55.272Z,46.47
2017-06-14T11:58:04.225Z,46.08
2017-06-14T11:59:13.186Z,45.99
2017-06-14T12:00:22.229Z,45.6
2017-06-14T12:01:31.187Z,45.7
2017-06-14T12:02:40.174Z,45.82
2017-06-14T12:03:49.133Z,45.82
2017-06-14T12:04:58.090Z,45.14
2017-06-14T12:06:07.372Z,45.14
2017-06-14T12:07:16.336Z,45.34
2017-06-14T12:08:25.290Z,45.24
2017-06-14T12:09:34.339Z,44.64
2017-06-14T12:10:43.349Z,44.64
2017-06-14T12:11:52.311Z,44.93
2017-06-14T12:13:01.270Z,45.21
2017-06-14T12:14:10.225Z,45.41
2017-06-14T12:15:19.181Z,45.12
2017-06-14T12:16:28.137Z,45.31
2017-06-14T12:17:37.092Z,45.03
2017-06-14T12:18:46.138Z,44.83
2017-06-14T12:19:55.097Z,44.15
2017-06-14T12:21:04.059Z,43.48
2017-06-14T12:22:13.022Z,43.1
2017-06-14T12:23:21.980Z,42.9
2017-06-14T12:24:31.026Z,43
2017-06-14T12:25:39.988Z,42.71
2017-06-14T12:26:48.942Z,43.29
2017-06-14T12:27:57.947Z,43.67
2017-06-14T12:29:06.907Z,43.38
2017-06-14T12:30:15.866Z,43.58
2017-06-14T12:31:24.825Z,43.38
2017-06-14T12:32:33.781Z,43.19
2017-06-14T12:33:42.882Z,43.1
2017-06-14T12:34:51.840Z,42.52
2017-06-14T12:36:00.798Z,43.58
2017-06-14T12:37:09.761Z,42.8
2017-06-14T12:38:19.061Z,43.02
2017-06-14T12:39:28.017Z,43.21
2017-06-14T12:40:36.975Z,43.21
2017-06-14T12:41:45.936Z,43.21
2017-06-14T12:42:54.896Z,43.21
2017-06-14T12:44:03.851Z,43.41
2017-06-14T12:45:12.810Z,43.41
2017-06-14T12:46:21.771Z,43.31
2017-06-14T12:47:30.738Z,43.21
2017-06-14T12:48:39.705Z,43.41
2017-06-14T12:49:48.668Z,43.12
2017-06-14T12:50:57.676Z,43.31
2017-06-14T12:52:06.723Z,43.31
2017-06-14T12:53:15.679Z,43.02
2017-06-14T12:54:24.639Z,42.83
2017-06-14T12:55:33.598Z,42.94
2017-06-14T12:56:42.563Z,42.56
2017-06-14T12:57:51.523Z,42.56
2017-06-14T12:59:00.483Z,42.66
2017-06-14T13:00:09.442Z,42.36
2017-06-14T13:01:18.397Z,42.36
2017-06-14T13:02:27.409Z,42.18
2017-06-14T13:03:36.365Z,42.36
2017-06-14T13:04:45.320Z,42.46
2017-06-14T13:05:54.280Z,42.56
2017-06-14T13:07:03.239Z,42.66
2017-06-14T13:08:12.199Z,42.56
2017-06-14T13:09:21.159Z,42.56
2017-06-14T13:10:30.119Z,42.46
2017-06-14T13:11:39.081Z,43.04
2017-06-14T13:12:48.048Z,42.94
2017-06-14T13:13:57.014Z,42.94
2017-06-14T13:15:05.978Z,42.66
2017-06-14T13:16:14.943Z,42.46
2017-06-14T13:17:23.897Z,42.56
2017-06-14T13:18:32.850Z,42.75
2017-06-14T13:19:41.813Z,43.04
2017-06-14T13:20:50.859Z,43.33
2017-06-14T13:21:59.817Z,43.24
2017-06-14T13:23:08.778Z,43.43
2017-06-14T13:24:18.153Z,43.14
2017-06-14T13:25:27.572Z,43.14
2017-06-14T13:26:36.621Z,43.33
2017-06-14T13:27:45.581Z,43.43
2017-06-14T13:28:54.544Z,43.04
2017-06-14T13:30:03.507Z,43.33
2017-06-14T13:31:12.517Z,43.52
2017-06-14T13:32:21.475Z,43.81
2017-06-14T13:33:30.435Z,43.72
2017-06-14T13:34:39.397Z,43.52
2017-06-14T13:35:48.358Z,43.43
2017-06-14T13:36:57.407Z,43.62
2017-06-14T13:38:06.369Z,43.81
2017-06-14T13:39:15.327Z,43.91
2017-06-14T13:40:24.294Z,43.91
2017-06-14T13:41:33.255Z,44.49
2017-06-14T13:42:42.213Z,43.33
2017-06-14T13:43:51.170Z,43.52
2017-06-14T13:45:00.129Z,43.43
2017-06-14T13:46:09.094Z,43.24
2017-06-14T13:47:18.087Z,43.43
2017-06-14T13:48:27.045Z,43.24
2017-06-14T13:49:36.013Z,43.14
2017-06-14T13:50:44.969Z,42.56
2017-06-14T13:51:53.931Z,42.56
2017-06-14T13:53:02.892Z,42.46
2017-06-14T13:54:11.853Z,42.94
2017-06-14T13:55:20.813Z,42.94
2017-06-14T13:56:29.776Z,43.33
2017-06-14T13:57:38.748Z,43.14
2017-06-14T13:58:47.710Z,42.94
2017-06-14T13:59:56.666Z,43.14
2017-06-14T14:01:05.625Z,43.04
2017-06-14T14:02:14.584Z,43.24
2017-06-14T14:03:23.553Z,43.14
2017-06-14T14:04:32.512Z,42.56
2017-06-14T14:05:41.472Z,42.46
2017-06-14T14:06:50.432Z,42.46
2017-06-14T14:07:59.480Z,42.94
2017-06-14T14:09:08.452Z,42.94
2017-06-14T14:10:17.740Z,43.06
2017-06-14T14:11:26.697Z,43.06
2017-06-14T14:12:35.658Z,42.94
2017-06-14T14:13:44.622Z,43.16
2017-06-14T14:14:54.671Z,43.45
2017-06-14T14:16:05.974Z,43.35
2017-06-14T14:17:15.302Z,43.45
2017-06-14T14:18:24.272Z,43.16
2017-06-14T14:19:33.231Z,43.35
2017-06-14T14:20:42.190Z,43.16
2017-06-14T14:21:51.147Z,42.87
2017-06-14T14:23:00.107Z,42.48
2017-06-14T14:24:09.067Z,43.35
2017-06-14T14:25:18.039Z,42.58
2017-06-14T14:26:27.330Z,42.48
2017-06-14T14:27:36.287Z,42.48
2017-06-14T14:28:45.254Z,42.58
2017-06-14T14:29:54.214Z,42.77
2017-06-14T14:31:03.176Z,42.68
2017-06-14T14:32:12.167Z,42.87
2017-06-14T14:33:21.127Z,43.54
2017-06-14T14:34:30.099Z,42.58
2017-06-14T14:35:39.064Z,43.16
2017-06-14T14:36:48.026Z,42.87
2017-06-14T14:37:56.990Z,42.48
2017-06-14T14:39:05.958Z,42.68
2017-06-14T14:40:15.239Z,42.77
2017-06-14T14:41:24.201Z,43.16
2017-06-14T14:42:33.160Z,43.35
2017-06-14T14:43:42.121Z,43.64
2017-06-14T14:44:51.409Z,43.45
2017-06-14T14:46:00.367Z,43.45
2017-06-14T14:47:09.331Z,43.35
2017-06-14T14:48:18.289Z,43.26
2017-06-14T14:49:27.251Z,43.35
2017-06-14T14:50:36.234Z,43.45
2017-06-14T14:51:45.188Z,43.06
2017-06-14T14:52:54.154Z,42.87